Time;durP1;ratioP1;P1;durP2;ratioP2;P2;SDS_P1;SDS_P2;PMS_P1;PMS_P2;Temp;Humidity;BMP_temperature;BMP_pressure;BME280_temperature;BME280_humidity;BME280_pressure;Samples;Min_cycle;Max_cycle;Signal;HPM_P1;HPM_P2
2023/10/17 00:01:44;;;;;;;13.02;8.52;;;7.70;99.90;;;;;;5011556;28;20171;-56
2023/10/17 00:06:47;;;;;;;11.85;8.30;;;7.60;99.90;;;;;;5011426;28;20211;-58
2023/10/17 00:09:24;;;;;;;15.27;8.93;;;7.60;99.90;;;;;;5011079;28;20222;-54
2023/10/17 00:14:20;;;;;;;13.35;9.57;;;7.60;99.90;;;;;;5011575;28;20186;-59
2023/10/17 00:16:46;;;;;;;13.27;7.95;;;7.60;99.90;;;;;;5011252;28;20177;-58
2023/10/17 00:19:15;;;;;;;14.68;9.40;;;7.50;99.90;;;;;;5011225;28;20179;-59
2023/10/17 00:21:41;;;;;;;11.98;9.05;;;7.50;99.90;;;;;;5011233;28;20164;-58
2023/10/17 00:24:10;;;;;;;13.45;8.32;;;7.50;99.90;;;;;;5011218;28;20577;-57
2023/10/17 00:26:39;;;;;;;11.18;8.15;;;7.50;99.90;;;;;;5013583;28;20215;-58
2023/10/17 00:29:09;;;;;;;10.93;7.97;;;7.50;99.90;;;;;;5014929;28;20636;-58
2023/10/17 00:31:37;;;;;;;11.45;7.93;;;7.50;99.90;;;;;;5014737;28;20635;-58
2023/10/17 00:34:13;;;;;;;10.50;7.57;;;7.40;99.90;;;;;;5014675;28;20164;-57
2023/10/17 00:36:47;;;;;;;14.10;8.52;;;7.40;99.90;;;;;;5014641;28;20266;-58
2023/10/17 00:39:30;;;;;;;12.60;7.80;;;7.40;99.90;;;;;;5014556;28;20159;-59
2023/10/17 00:44:33;;;;;;;11.82;8.27;;;7.20;99.90;;;;;;5014817;28;20226;-57
2023/10/17 00:47:01;;;;;;;12.13;7.95;;;7.30;99.90;;;;;;5014436;28;20211;-56
2023/10/17 00:49:33;;;;;;;18.77;9.48;;;7.30;99.90;;;;;;5015169;28;20164;-55
2023/10/17 00:52:03;;;;;;;12.57;8.52;;;7.30;99.90;;;;;;5014393;28;20646;-56
2023/10/17 00:54:35;;;;;;;13.23;8.32;;;7.20;99.90;;;;;;5014282;28;20203;-55
2023/10/17 00:57:02;;;;;;;16.23;8.57;;;7.20;99.90;;;;;;5014511;28;20180;-58
2023/10/17 00:59:29;;;;;;;13.07;8.77;;;7.10;99.90;;;;;;5014737;28;20160;-55
2023/10/17 01:02:06;;;;;;;12.50;8.25;;;7.10;99.90;;;;;;5014572;28;20183;-56
2023/10/17 01:04:33;;;;;;;10.85;8.73;;;7.10;99.90;;;;;;5012887;28;20183;-56
2023/10/17 01:07:05;;;;;;;16.58;8.90;;;7.10;99.90;;;;;;5014693;28;20294;-56
2023/10/17 01:09:34;;;;;;;13.48;8.27;;;7.10;99.90;;;;;;5013901;28;20199;-55
2023/10/17 01:12:09;;;;;;;12.25;8.15;;;7.20;99.90;;;;;;5014159;28;20223;-59
2023/10/17 01:14:35;;;;;;;10.88;7.63;;;7.20;99.90;;;;;;5014184;28;20203;-59
2023/10/17 01:17:07;;;;;;;12.13;8.52;;;7.20;99.90;;;;;;5013916;28;20160;-55
2023/10/17 01:19:33;;;;;;;15.07;7.60;;;7.20;99.90;;;;;;5014113;28;20176;-55
2023/10/17 01:21:59;;;;;;;10.95;7.53;;;7.20;99.90;;;;;;5013953;28;20632;-55
2023/10/17 01:24:26;;;;;;;13.90;7.50;;;7.20;99.90;;;;;;5014426;28;20190;-56
2023/10/17 01:26:52;;;;;;;14.50;7.55;;;7.20;99.90;;;;;;5013698;28;20627;-56
2023/10/17 01:29:18;;;;;;;10.73;7.18;;;7.30;99.90;;;;;;5013699;28;20203;-56
2023/10/17 01:31:44;;;;;;;10.48;7.35;;;7.30;99.90;;;;;;5013856;28;20187;-60
2023/10/17 01:34:11;;;;;;;9.15;6.82;;;7.30;99.90;;;;;;5013508;28;20171;-58
2023/10/17 01:36:40;;;;;;;12.48;8.02;;;7.30;99.90;;;;;;5013281;28;20183;-57
2023/10/17 01:39:06;;;;;;;12.40;7.28;;;7.30;99.90;;;;;;5013290;28;20171;-54
2023/10/17 01:41:32;;;;;;;9.95;6.40;;;7.30;99.90;;;;;;5013539;28;20168;-55
2023/10/17 01:43:58;;;;;;;9.90;6.68;;;7.30;99.90;;;;;;5013884;28;20662;-55
2023/10/17 01:46:28;;;;;;;8.93;6.65;;;7.30;99.90;;;;;;5013749;28;20204;-55
2023/10/17 01:48:54;;;;;;;12.52;7.32;;;7.30;99.90;;;;;;5013948;28;20295;-55
2023/10/17 01:51:21;;;;;;;12.73;7.03;;;7.30;99.90;;;;;;5013538;28;20172;-55
2023/10/17 01:53:51;;;;;;;12.50;7.30;;;7.30;99.90;;;;;;5013437;28;20171;-53
2023/10/17 01:56:26;;;;;;;11.30;7.63;;;7.40;99.90;;;;;;5013405;28;20259;-54
2023/10/17 01:58:55;;;;;;;11.13;6.78;;;7.40;99.90;;;;;;5013428;28;20163;-54
2023/10/17 02:01:25;;;;;;;11.98;6.15;;;7.40;99.90;;;;;;5013344;28;20172;-54
2023/10/17 02:03:52;;;;;;;11.25;6.03;;;7.40;99.90;;;;;;5013096;28;20160;-55
2023/10/17 02:06:19;;;;;;;11.75;6.35;;;7.40;99.90;;;;;;5012810;28;20667;-54
2023/10/17 02:08:46;;;;;;;10.98;6.35;;;7.40;99.90;;;;;;5012840;28;20624;-54
2023/10/17 02:11:14;;;;;;;8.10;5.30;;;7.40;99.90;;;;;;5012668;28;20577;-54
2023/10/17 02:13:42;;;;;;;11.98;5.65;;;7.40;99.90;;;;;;5012807;28;20694;-53
2023/10/17 02:16:12;;;;;;;7.68;5.35;;;7.50;99.90;;;;;;5012914;28;20226;-54
2023/10/17 02:18:38;;;;;;;7.55;5.78;;;7.40;99.90;;;;;;5013161;28;20171;-54
2023/10/17 02:21:06;;;;;;;9.50;5.78;;;7.40;99.90;;;;;;5012985;28;20208;-54
2023/10/17 02:23:51;;;;;;;8.73;5.65;;;7.30;99.90;;;;;;5012679;28;20514;-55
2023/10/17 02:26:25;;;;;;;9.48;5.10;;;7.40;99.90;;;;;;5012609;28;20207;-63
2023/10/17 02:28:59;;;;;;;8.30;5.88;;;7.40;99.90;;;;;;5012527;28;20247;-62
2023/10/17 02:31:29;;;;;;;6.55;5.03;;;7.40;99.90;;;;;;5012998;28;20635;-63
2023/10/17 02:33:58;;;;;;;9.43;5.55;;;7.30;99.90;;;;;;5013256;28;20230;-64
2023/10/17 02:36:25;;;;;;;6.40;5.05;;;7.40;99.90;;;;;;5012916;28;20670;-60
2023/10/17 02:38:50;;;;;;;12.38;5.50;;;7.40;99.90;;;;;;5012443;28;20251;-56
2023/10/17 02:41:19;;;;;;;7.63;5.20;;;7.40;99.90;;;;;;5012435;28;20206;-64
2023/10/17 02:43:53;;;;;;;7.68;5.20;;;7.40;99.90;;;;;;5012537;28;20175;-60
2023/10/17 02:46:19;;;;;;;6.47;4.50;;;7.40;99.90;;;;;;5012372;28;20258;-63
2023/10/17 02:48:48;;;;;;;7.97;4.75;;;7.40;99.90;;;;;;5011904;28;20164;-61
2023/10/17 02:53:53;;;;;;;6.78;4.95;;;7.50;99.90;;;;;;5012468;28;20222;-63
2023/10/17 02:56:19;;;;;;;11.00;4.85;;;7.50;99.90;;;;;;5012241;28;20251;-63
2023/10/17 02:58:49;;;;;;;8.30;4.40;;;7.50;99.90;;;;;;5012374;28;20179;-63
2023/10/17 03:01:15;;;;;;;8.45;4.35;;;7.50;99.90;;;;;;5012217;28;20175;-63
2023/10/17 03:03:42;;;;;;;8.60;4.45;;;7.50;99.90;;;;;;5011503;28;20164;-64
2023/10/17 03:06:08;;;;;;;6.07;4.65;;;7.50;99.90;;;;;;5011900;28;20242;-64
2023/10/17 03:08:37;;;;;;;9.05;4.70;;;7.50;99.90;;;;;;5011925;28;20164;-64
2023/10/17 03:11:08;;;;;;;7.68;4.78;;;7.60;99.90;;;;;;5011863;28;20216;-63
2023/10/17 03:13:40;;;;;;;8.80;4.80;;;7.50;99.90;;;;;;5011894;28;20168;-64
2023/10/17 03:16:26;;;;;;;8.90;4.80;;;7.50;99.90;;;;;;5011747;28;20171;-64
2023/10/17 03:18:52;;;;;;;7.28;4.75;;;7.50;99.90;;;;;;5011940;28;20175;-62
2023/10/17 03:21:30;;;;;;;5.50;4.55;;;7.50;99.90;;;;;;5011727;28;20623;-64
2023/10/17 03:24:09;;;;;;;7.72;4.43;;;7.60;99.90;;;;;;5012383;28;20175;-64
2023/10/17 03:26:42;;;;;;;8.30;4.85;;;7.50;99.90;;;;;;5011804;28;20216;-64
2023/10/17 03:29:42;;;;;;;9.30;5.15;;;7.50;99.90;;;;;;5011649;28;20167;-62
2023/10/17 03:32:05;;;;;;;7.07;4.82;;;7.40;99.90;;;;;;5008542;28;20230;-63
2023/10/17 03:34:35;;;;;;;11.93;5.80;;;7.50;99.90;;;;;;5011699;28;20251;-62
2023/10/17 03:39:55;;;;;;;8.63;5.22;;;7.40;99.90;;;;;;5011769;28;20203;-61
2023/10/17 03:44:56;;;;;;;9.75;4.85;;;7.40;99.90;;;;;;5012155;28;20242;-62
2023/10/17 03:47:22;;;;;;;5.68;4.30;;;7.40;99.90;;;;;;5011264;28;20298;-60
2023/10/17 03:49:48;;;;;;;9.13;4.80;;;7.40;99.90;;;;;;5011791;28;20621;-58
2023/10/17 03:52:16;;;;;;;5.95;4.53;;;7.40;99.90;;;;;;5011525;28;20164;-57
2023/10/17 03:54:44;;;;;;;7.80;4.82;;;7.40;99.90;;;;;;5011722;28;20176;-62
2023/10/17 03:57:16;;;;;;;7.22;4.47;;;7.30;99.90;;;;;;5011669;28;20176;-60
2023/10/17 03:59:42;;;;;;;7.60;5.20;;;7.40;99.90;;;;;;5011576;28;20238;-58
2023/10/17 04:02:22;;;;;;;8.48;4.43;;;7.40;99.90;;;;;;5014966;28;20172;-58
2023/10/17 04:04:57;;;;;;;6.50;4.63;;;7.40;99.90;;;;;;5015502;28;20172;-61
2023/10/17 04:07:26;;;;;;;8.27;4.55;;;7.30;99.90;;;;;;5015165;28;20210;-56
2023/10/17 04:09:52;;;;;;;8.50;4.63;;;7.40;99.90;;;;;;5015322;28;20231;-56
2023/10/17 04:12:21;;;;;;;8.20;4.20;;;7.30;99.90;;;;;;5015512;28;20779;-57
2023/10/17 04:14:59;;;;;;;7.57;4.72;;;7.40;99.90;;;;;;5015118;28;20179;-58
2023/10/17 04:17:29;;;;;;;6.22;5.00;;;7.30;99.90;;;;;;5014248;28;20182;-55
2023/10/17 04:19:59;;;;;;;6.10;4.43;;;7.30;99.90;;;;;;5015298;28;20260;-55
2023/10/17 04:22:30;;;;;;;7.43;4.53;;;7.30;99.90;;;;;;5015238;28;20662;-55
2023/10/17 04:25:00;;;;;;;7.25;4.82;;;7.30;99.90;;;;;;5015332;28;20184;-55
2023/10/17 04:27:31;;;;;;;10.35;5.25;;;7.30;99.90;;;;;;5015419;28;20553;-55
2023/10/17 04:29:58;;;;;;;5.15;4.32;;;7.30;99.90;;;;;;5015535;28;20203;-55
2023/10/17 04:32:34;;;;;;;7.72;5.35;;;7.30;99.90;;;;;;5015196;28;20160;-56
2023/10/17 04:35:02;;;;;;;7.88;5.63;;;7.30;99.90;;;;;;5014969;28;20178;-57
2023/10/17 04:37:37;;;;;;;7.85;4.70;;;7.30;99.90;;;;;;5015303;28;20234;-57
2023/10/17 04:42:47;;;;;;;9.68;6.07;;;7.30;99.90;;;;;;5014452;28;20178;-57
2023/10/17 04:45:13;;;;;;;10.35;6.07;;;7.30;99.90;;;;;;5014675;28;20242;-56
2023/10/17 04:47:46;;;;;;;10.63;6.00;;;7.30;99.90;;;;;;5014477;28;20561;-56
2023/10/17 04:50:12;;;;;;;8.23;5.53;;;7.20;99.90;;;;;;5014673;28;20172;-56
2023/10/17 04:52:44;;;;;;;9.02;6.18;;;7.30;99.90;;;;;;5014364;28;20627;-57
2023/10/17 04:55:21;;;;;;;9.95;6.05;;;7.30;99.90;;;;;;5014240;28;20172;-56
2023/10/17 05:00:52;;;;;;;11.05;7.10;;;7.30;99.90;;;;;;5014374;28;20170;-56
2023/10/17 05:03:32;;;;;;;16.42;7.32;;;7.30;99.90;;;;;;5012868;28;20243;-56
2023/10/17 05:09:09;;;;;;;12.13;5.88;;;7.30;99.90;;;;;;5014383;28;20191;-57
2023/10/17 06:17:24;;;;;;;8.02;4.72;;;7.30;99.90;;;;;;5011873;28;20237;-55
2023/10/17 06:19:50;;;;;;;6.60;4.70;;;7.20;99.90;;;;;;5012114;28;20266;-53
2023/10/17 06:28:20;;;;;;;12.15;7.38;;;7.30;99.90;;;;;;5012477;28;20218;-60
2023/10/17 06:31:21;;;;;;;12.55;5.80;;;7.40;99.90;;;;;;5011438;28;20348;-58
2023/10/17 06:33:19;;;;;;;12.02;7.20;;;7.40;99.90;;;;;;5011251;28;20214;-57
2023/10/17 06:35:52;;;;;;;20.27;11.25;;;7.30;99.90;;;;;;5011932;28;20250;-60
2023/10/17 06:38:20;;;;;;;8.50;5.20;;;7.40;99.90;;;;;;5011580;28;20178;-60
2023/10/17 06:40:45;;;;;;;9.60;4.85;;;7.40;99.90;;;;;;5011822;28;20176;-55
2023/10/17 06:43:27;;;;;;;6.35;4.22;;;7.40;99.90;;;;;;5011384;28;20553;-57
2023/10/17 06:45:55;;;;;;;6.03;4.25;;;7.50;99.90;;;;;;5011779;28;20250;-60
2023/10/17 06:48:31;;;;;;;7.88;4.43;;;7.50;99.90;;;;;;5011635;28;20238;-60
2023/10/17 06:53:40;;;;;;;19.55;9.27;;;7.60;99.90;;;;;;5011308;28;20267;-58
2023/10/17 06:56:09;;;;;;;7.25;4.90;;;7.60;99.90;;;;;;5011310;28;20635;-60
2023/10/17 06:58:36;;;;;;;7.20;4.35;;;7.60;99.90;;;;;;5011301;28;20259;-60
2023/10/17 07:01:04;;;;;;;8.88;4.88;;;7.70;99.90;;;;;;5011624;28;20184;-60
2023/10/17 07:03:34;;;;;;;8.48;5.38;;;7.70;99.90;;;;;;5011474;28;20172;-60
2023/10/17 07:06:20;;;;;;;8.82;5.25;;;7.80;99.90;;;;;;5011215;28;20211;-60
2023/10/17 07:08:46;;;;;;;7.97;4.10;;;7.90;99.90;;;;;;5011178;28;20175;-55
2023/10/17 07:11:26;;;;;;;11.40;6.90;;;7.90;99.90;;;;;;4975023;28;1064488;-54
2023/10/17 07:16:34;;;;;;;11.13;5.30;;;8.00;99.90;;;;;;5012086;28;20202;-60
2023/10/17 07:19:44;;;;;;;5.78;4.13;;;8.00;99.90;;;;;;5011854;28;20175;-59
2023/10/17 07:24:42;;;;;;;8.20;5.00;;;8.10;99.90;;;;;;5012328;28;20231;-60
2023/10/17 07:27:27;;;;;;;6.95;4.03;;;8.20;99.90;;;;;;5011863;28;20218;-59
2023/10/17 07:29:59;;;;;;;6.70;4.05;;;8.10;99.90;;;;;;5011873;28;20195;-59
2023/10/17 07:32:32;;;;;;;8.55;4.75;;;8.20;99.90;;;;;;5012039;28;20168;-60
2023/10/17 07:34:59;;;;;;;7.63;4.15;;;7.90;99.90;;;;;;5011014;28;20179;-59
2023/10/17 07:37:24;;;;;;;7.38;4.90;;;8.30;99.90;;;;;;5011968;28;20663;-59
2023/10/17 07:40:16;;;;;;;6.38;4.90;;;8.40;99.90;;;;;;5011560;28;20183;-59
2023/10/17 07:42:42;;;;;;;8.40;4.22;;;8.40;99.90;;;;;;5011697;28;20172;-58
2023/10/17 07:45:14;;;;;;;7.03;4.88;;;8.40;99.90;;;;;;5011678;28;20183;-55
2023/10/17 07:47:51;;;;;;;11.57;5.03;;;8.40;99.90;;;;;;5011681;28;20382;-54
2023/10/17 07:50:17;;;;;;;8.40;4.60;;;8.50;99.90;;;;;;5011329;28;20180;-54
2023/10/17 07:52:50;;;;;;;9.48;6.97;;;8.60;99.90;;;;;;5011729;28;20168;-54
2023/10/17 07:55:19;;;;;;;11.48;4.65;;;8.50;99.90;;;;;;5011593;28;20180;-55
2023/10/17 07:57:51;;;;;;;5.72;3.95;;;8.60;99.90;;;;;;5011700;28;20227;-54
2023/10/17 08:00:27;;;;;;;10.18;6.45;;;8.60;99.90;;;;;;5011465;28;20533;-55
2023/10/17 08:03:00;;;;;;;9.32;4.60;;;8.70;99.90;;;;;;5011345;28;20229;-55
2023/10/17 08:05:36;;;;;;;5.85;3.65;;;8.80;99.90;;;;;;5011868;28;20196;-54
2023/10/17 08:08:08;;;;;;;6.88;4.55;;;8.80;99.90;;;;;;5011601;28;20176;-54
2023/10/17 08:10:35;;;;;;;12.30;8.52;;;8.80;99.90;;;;;;5011134;28;20226;-55
2023/10/17 08:13:02;;;;;;;9.60;4.40;;;8.90;99.90;;;;;;5011207;28;20303;-54
2023/10/17 08:15:38;;;;;;;6.68;4.53;;;8.90;99.90;;;;;;5011357;28;20179;-55
2023/10/17 08:18:13;;;;;;;6.22;4.03;;;9.00;99.90;;;;;;5011452;28;20179;-59
2023/10/17 08:20:45;;;;;;;8.65;5.85;;;9.00;99.90;;;;;;5011369;28;20164;-59
2023/10/17 08:23:11;;;;;;;6.38;5.47;;;9.10;99.90;;;;;;5011122;28;20168;-56
2023/10/17 08:25:52;;;;;;;8.10;4.07;;;9.10;99.90;;;;;;5011322;28;20232;-59
2023/10/17 08:28:32;;;;;;;6.60;4.38;;;9.10;99.90;;;;;;5011402;28;20179;-58
2023/10/17 08:36:48;;;;;;;6.43;4.28;;;9.30;99.90;;;;;;5011499;28;20683;-58
2023/10/17 08:39:32;;;;;;;10.52;7.45;;;9.40;99.90;;;;;;5011183;28;20536;-56
2023/10/17 08:42:05;;;;;;;4.53;3.70;;;9.40;99.90;;;;;;5011290;28;20176;-55
2023/10/17 08:44:35;;;;;;;7.55;5.18;;;9.50;99.90;;;;;;5010849;28;20251;-55
2023/10/17 08:47:01;;;;;;;4.25;3.78;;;9.60;99.90;;;;;;5012200;28;20667;-57
2023/10/17 08:49:27;;;;;;;9.90;5.40;;;9.60;99.90;;;;;;5014747;28;20190;-57
2023/10/17 08:51:57;;;;;;;8.27;4.30;;;9.60;99.90;;;;;;5014778;28;20199;-56
2023/10/17 08:54:29;;;;;;;9.50;4.22;;;11.20;99.90;;;;;;5014942;28;20255;-56
2023/10/17 08:56:55;;;;;;;16.70;6.70;;;9.70;99.90;;;;;;5014698;28;20176;-56
2023/10/17 09:05:18;;;;;;;7.72;2.75;;;9.90;99.90;;;;;;5014825;28;20168;-56
2023/10/17 09:07:47;;;;;;;6.80;3.55;;;9.90;99.90;;;;;;5013983;28;20180;-57
2023/10/17 09:10:38;;;;;;;3.88;3.17;;;10.00;99.90;;;;;;5013992;28;20251;-61
2023/10/17 09:16:08;;;;;;;6.10;3.20;;;9.90;99.90;;;;;;5010870;28;20606;-57
2023/10/17 09:18:40;;;;;;;6.65;3.85;;;9.90;99.90;;;;;;5012078;28;20171;-56
2023/10/17 09:21:06;;;;;;;5.35;3.08;;;9.90;99.90;;;;;;5011995;28;20190;-57
2023/10/17 09:23:32;;;;;;;3.85;2.40;;;9.80;99.90;;;;;;5011954;28;20173;-54
2023/10/17 09:26:01;;;;;;;6.60;2.88;;;9.80;99.90;;;;;;5011921;28;20254;-51
2023/10/17 09:28:28;;;;;;;6.82;3.78;;;9.80;99.90;;;;;;5012117;28;20532;-55
2023/10/17 09:31:06;;;;;;;6.72;3.50;;;9.80;99.90;;;;;;5012597;28;20176;-54
2023/10/17 09:33:33;;;;;;;3.63;2.70;;;9.80;99.90;;;;;;5012162;28;20601;-53
2023/10/17 09:36:04;;;;;;;9.60;5.03;;;10.00;99.90;;;;;;5012068;28;20180;-55
2023/10/17 09:38:43;;;;;;;6.97;4.20;;;10.10;99.90;;;;;;5011761;28;20537;-62
2023/10/17 09:41:11;;;;;;;4.65;2.80;;;10.10;99.90;;;;;;5011762;28;20172;-63
2023/10/17 09:43:37;;;;;;;7.18;2.92;;;10.10;99.90;;;;;;5011528;28;20172;-57
2023/10/17 09:46:09;;;;;;;5.38;3.22;;;10.20;99.90;;;;;;5010271;28;20226;-58
2023/10/17 09:48:36;;;;;;;4.13;2.28;;;10.20;99.90;;;;;;5011529;28;20631;-56
2023/10/17 09:51:03;;;;;;;8.23;2.92;;;10.20;99.90;;;;;;5011604;28;20268;-57
2023/10/17 09:53:33;;;;;;;3.55;2.53;;;10.10;99.90;;;;;;5011339;28;20172;-56
2023/10/17 09:56:03;;;;;;;4.22;2.60;;;10.10;99.90;;;;;;5011592;28;20211;-56
2023/10/17 09:58:36;;;;;;;2.90;2.30;;;10.10;99.90;;;;;;5010329;28;20172;-56
2023/10/17 10:01:10;;;;;;;6.05;2.55;;;10.60;99.90;;;;;;5011758;28;20160;-56
2023/10/17 10:03:37;;;;;;;3.22;2.30;;;10.90;99.90;;;;;;5009990;28;20262;-55
2023/10/17 10:06:31;;;;;;;3.92;1.90;;;11.30;99.90;;;;;;5011313;28;20203;-57
2023/10/17 10:09:06;;;;;;;3.65;2.08;;;11.40;99.90;;;;;;5011427;28;20164;-55
2023/10/17 10:11:49;;;;;;;9.73;4.40;;;11.60;99.90;;;;;;5011304;28;20195;-54
2023/10/17 10:14:34;;;;;;;8.77;2.72;;;11.70;99.90;;;;;;5011128;28;20286;-55
2023/10/17 10:17:03;;;;;;;10.13;5.07;;;11.70;99.90;;;;;;5011011;28;20223;-54
2023/10/17 10:19:41;;;;;;;8.57;4.22;;;11.80;99.90;;;;;;5011121;28;20251;-54
2023/10/17 10:22:08;;;;;;;6.15;3.17;;;11.90;99.90;;;;;;5011267;28;20172;-55
2023/10/17 10:24:39;;;;;;;6.53;2.90;;;12.00;99.90;;;;;;5011058;28;20172;-55
2023/10/17 10:27:14;;;;;;;11.75;4.70;;;12.20;99.90;;;;;;5011001;28;20228;-54
2023/10/17 10:29:43;;;;;;;18.00;7.75;;;12.40;99.90;;;;;;5010774;28;20162;-55
2023/10/17 10:32:40;;;;;;;18.70;7.70;;;12.40;99.90;;;;;;5010827;28;20175;-55
2023/10/17 10:35:06;;;;;;;12.43;5.85;;;12.40;99.90;;;;;;5011144;28;20530;-55
2023/10/17 10:37:54;;;;;;;10.75;4.63;;;12.60;99.90;;;;;;5010680;28;20648;-55
2023/10/17 10:40:30;;;;;;;4.95;3.03;;;12.60;99.90;;;;;;5010580;28;20168;-55
2023/10/17 10:42:59;;;;;;;3.45;2.25;;;12.70;99.90;;;;;;5010917;28;20163;-55
2023/10/17 10:45:35;;;;;;;2.72;2.08;;;12.80;99.90;;;;;;5010953;28;20168;-56
2023/10/17 10:48:15;;;;;;;4.90;2.53;;;12.80;99.90;;;;;;5010402;28;20627;-55
2023/10/17 10:50:42;;;;;;;2.60;1.80;;;12.80;99.90;;;;;;5010423;28;20190;-56
2023/10/17 10:53:28;;;;;;;5.03;1.70;;;12.60;99.90;;;;;;5010513;28;20179;-55
2023/10/17 10:56:15;;;;;;;6.00;2.97;;;12.60;99.90;;;;;;5010708;28;20164;-55
2023/10/17 10:58:51;;;;;;;5.78;3.38;;;12.80;99.90;;;;;;5010404;28;20180;-55
2023/10/17 11:01:18;;;;;;;3.92;2.10;;;12.90;99.90;;;;;;5010136;28;20160;-55
2023/10/17 11:03:48;;;;;;;2.60;2.10;;;13.00;99.90;;;;;;5010125;28;20159;-56
2023/10/17 11:06:18;;;;;;;3.05;2.20;;;13.00;99.90;;;;;;5010076;28;20639;-56
2023/10/17 11:08:46;;;;;;;3.05;1.77;;;13.00;99.90;;;;;;5010034;28;20235;-55
2023/10/17 11:11:16;;;;;;;4.50;2.40;;;13.00;99.90;;;;;;5009651;28;20228;-56
2023/10/17 11:13:47;;;;;;;2.40;1.73;;;13.10;99.90;;;;;;5010303;28;20191;-56
2023/10/17 11:16:14;;;;;;;2.90;2.40;;;13.30;99.90;;;;;;5010166;28;20164;-54
2023/10/17 11:18:43;;;;;;;2.10;1.58;;;13.30;99.90;;;;;;5009835;28;20646;-56
2023/10/17 11:21:10;;;;;;;2.83;1.85;;;13.30;99.90;;;;;;5009884;28;20168;-55
2023/10/17 11:23:52;;;;;;;27.63;17.92;;;13.50;99.90;;;;;;5009961;28;20168;-55
2023/10/17 11:26:22;;;;;;;12.35;9.70;;;13.40;99.90;;;;;;5009789;28;20293;-56
2023/10/17 11:28:51;;;;;;;4.57;2.38;;;13.60;99.90;;;;;;5009760;28;20210;-56
2023/10/17 11:31:24;;;;;;;4.22;3.40;;;13.30;99.90;;;;;;5009986;28;20178;-55
2023/10/17 11:33:53;;;;;;;4.22;2.95;;;13.50;99.90;;;;;;5009849;28;20175;-55
2023/10/17 11:36:20;;;;;;;3.95;1.65;;;13.40;99.90;;;;;;5009795;28;20634;-55
2023/10/17 11:38:58;;;;;;;3.88;1.63;;;13.20;99.90;;;;;;5009868;28;20638;-55
2023/10/17 11:41:40;;;;;;;10.45;7.20;;;13.40;99.90;;;;;;5010134;28;20190;-56
2023/10/17 11:44:09;;;;;;;5.13;3.28;;;13.40;99.90;;;;;;5009768;28;20176;-55
2023/10/17 11:46:35;;;;;;;6.53;3.30;;;13.60;99.90;;;;;;5008337;28;20232;-55
2023/10/17 11:49:21;;;;;;;2.72;2.30;;;13.70;99.90;;;;;;5009524;28;20694;-55
2023/10/17 11:52:12;;;;;;;5.95;5.00;;;13.80;99.90;;;;;;5009520;28;20196;-55
2023/10/17 11:55:00;;;;;;;5.95;4.35;;;13.80;99.90;;;;;;5002704;28;20537;-55
2023/10/17 11:57:33;;;;;;;5.30;3.35;;;13.80;99.90;;;;;;5010049;28;20268;-55
2023/10/17 12:02:49;;;;;;;8.80;6.63;;;13.90;99.90;;;;;;5009650;28;20226;-55
2023/10/17 12:05:19;;;;;;;7.15;5.40;;;13.80;99.90;;;;;;5009595;28;20200;-55
2023/10/17 12:07:57;;;;;;;8.05;6.22;;;13.90;99.90;;;;;;5009732;28;20286;-56
2023/10/17 12:10:28;;;;;;;7.53;4.75;;;13.90;99.90;;;;;;5009812;28;20300;-56
2023/10/17 12:12:59;;;;;;;7.28;4.55;;;13.90;99.90;;;;;;5009939;28;20179;-56
2023/10/17 12:15:25;;;;;;;4.40;2.67;;;13.80;99.90;;;;;;5009995;28;20169;-56
2023/10/17 12:17:52;;;;;;;1.73;1.33;;;13.70;99.90;;;;;;5009177;28;20164;-56
2023/10/17 12:20:25;;;;;;;4.10;3.20;;;13.60;99.90;;;;;;5009587;28;20176;-56
2023/10/17 12:22:55;;;;;;;11.82;6.88;;;13.70;99.90;;;;;;5011997;28;20176;-55
2023/10/17 12:25:23;;;;;;;7.50;5.82;;;14.00;99.90;;;;;;5013601;28;20175;-56
2023/10/17 12:27:56;;;;;;;10.98;9.25;;;14.00;99.90;;;;;;5013149;28;20542;-56
2023/10/17 12:30:23;;;;;;;5.35;3.38;;;14.20;99.90;;;;;;5013519;28;20350;-56
2023/10/17 12:32:49;;;;;;;12.50;7.18;;;14.10;99.90;;;;;;5013148;28;20570;-55
2023/10/17 12:35:16;;;;;;;5.85;1.98;;;14.00;99.90;;;;;;5012853;28;20203;-55
2023/10/17 12:37:45;;;;;;;3.60;2.50;;;14.10;99.90;;;;;;5013027;28;20168;-55
2023/10/17 12:40:18;;;;;;;5.13;3.03;;;14.20;99.90;;;;;;5013074;28;20175;-55
2023/10/17 12:42:48;;;;;;;4.05;2.55;;;14.20;99.90;;;;;;5010555;28;20192;-55
2023/10/17 12:45:20;;;;;;;5.03;2.70;;;14.20;99.90;;;;;;5012692;28;20172;-56
2023/10/17 12:47:47;;;;;;;5.32;3.75;;;14.30;99.90;;;;;;5012652;28;20729;-55
2023/10/17 12:50:15;;;;;;;33.53;20.17;;;14.30;99.90;;;;;;5012758;28;20250;-55
2023/10/17 12:52:41;;;;;;;26.10;20.52;;;14.40;99.90;;;;;;5012800;28;20263;-55
2023/10/17 12:55:11;;;;;;;6.78;5.35;;;14.40;99.90;;;;;;5012503;28;20255;-56
2023/10/17 12:57:38;;;;;;;4.20;2.17;;;14.30;99.90;;;;;;5011295;28;20176;-56
2023/10/17 13:00:14;;;;;;;5.13;4.65;;;14.10;99.90;;;;;;5012689;28;20259;-56
2023/10/17 13:02:42;;;;;;;4.63;4.20;;;14.20;99.90;;;;;;5012367;28;20291;-56
2023/10/17 13:05:09;;;;;;;3.67;2.55;;;14.30;99.90;;;;;;5012586;28;20529;-56
2023/10/17 13:07:40;;;;;;;3.55;3.25;;;14.20;99.90;;;;;;5012255;28;20215;-55
2023/10/17 13:10:07;;;;;;;2.58;2.10;;;14.20;99.90;;;;;;5011400;28;20295;-56
2023/10/17 13:12:33;;;;;;;2.95;2.28;;;14.20;99.90;;;;;;5011816;28;20255;-56
2023/10/17 13:14:59;;;;;;;4.57;2.10;;;14.30;99.90;;;;;;5012514;28;20275;-56
2023/10/17 13:17:25;;;;;;;3.80;2.25;;;14.30;99.90;;;;;;5012588;28;20679;-56
2023/10/17 13:19:51;;;;;;;4.65;4.15;;;14.20;99.90;;;;;;5012162;28;20167;-55
2023/10/17 13:22:20;;;;;;;3.10;2.70;;;14.20;99.90;;;;;;5012167;28;20168;-55
2023/10/17 13:24:47;;;;;;;2.45;2.10;;;14.30;99.90;;;;;;5012289;28;20593;-55
2023/10/17 13:27:13;;;;;;;3.75;3.25;;;14.20;99.90;;;;;;5011836;28;20223;-55
2023/10/17 13:29:38;;;;;;;4.15;3.75;;;14.20;99.90;;;;;;5012065;28;20498;-57
2023/10/17 13:32:07;;;;;;;5.70;4.45;;;14.30;99.90;;;;;;5011696;28;20178;-56
2023/10/17 13:34:39;;;;;;;4.18;3.78;;;14.40;99.90;;;;;;5011825;28;20635;-56
2023/10/17 13:37:04;;;;;;;3.50;2.50;;;14.30;99.90;;;;;;5011686;28;20172;-55
2023/10/17 13:39:34;;;;;;;7.30;4.93;;;14.20;99.90;;;;;;5011753;28;20679;-56
2023/10/17 13:42:02;;;;;;;3.10;1.52;;;14.20;99.90;;;;;;5011958;28;20172;-56
2023/10/17 13:44:28;;;;;;;3.80;2.65;;;14.30;99.90;;;;;;5011419;28;20175;-56
2023/10/17 13:46:54;;;;;;;8.18;7.18;;;14.40;99.90;;;;;;5012066;28;20219;-56
2023/10/17 13:49:20;;;;;;;6.78;6.18;;;14.40;99.90;;;;;;5011444;28;20164;-56
2023/10/17 13:51:46;;;;;;;2.88;1.52;;;14.40;99.90;;;;;;5011739;28;20176;-56
2023/10/17 13:54:15;;;;;;;5.05;4.63;;;14.50;99.90;;;;;;5010986;28;20320;-56
2023/10/17 13:56:41;;;;;;;2.17;1.77;;;14.30;99.90;;;;;;5011333;28;20168;-56
2023/10/17 13:59:11;;;;;;;4.45;2.65;;;14.30;99.90;;;;;;5011343;28;20708;-56
2023/10/17 14:01:46;;;;;;;4.80;3.20;;;14.10;99.90;;;;;;5011392;28;20790;-56
2023/10/17 14:04:12;;;;;;;2.08;1.98;;;14.10;99.90;;;;;;5011109;28;20171;-57
2023/10/17 14:06:39;;;;;;;2.00;1.42;;;14.20;99.90;;;;;;5011225;28;20231;-57
2023/10/17 14:09:15;;;;;;;1.92;1.60;;;14.10;99.90;;;;;;5011000;28;20187;-55
2023/10/17 14:11:47;;;;;;;3.47;1.98;;;14.00;99.90;;;;;;5011201;28;20186;-55
2023/10/17 14:14:13;;;;;;;3.45;2.28;;;14.00;99.90;;;;;;5011088;28;20271;-55
2023/10/17 14:16:40;;;;;;;3.15;2.30;;;14.00;99.90;;;;;;5010966;28;20183;-55
2023/10/17 14:19:28;;;;;;;4.53;3.67;;;13.80;99.90;;;;;;5011486;28;20168;-55
2023/10/17 14:27:29;;;;;;;7.22;4.47;;;13.80;99.90;;;;;;5010921;28;20210;-55
2023/10/17 14:29:59;;;;;;;12.30;2.13;;;13.80;99.90;;;;;;5011097;28;20170;-55
2023/10/17 14:32:28;;;;;;;2.17;1.80;;;13.90;99.90;;;;;;5011463;28;20171;-55
2023/10/17 14:34:54;;;;;;;5.25;4.05;;;13.90;99.90;;;;;;5011244;28;20168;-56
2023/10/17 14:37:22;;;;;;;2.60;2.40;;;13.80;99.90;;;;;;5010695;28;20517;-55
2023/10/17 14:39:48;;;;;;;2.65;2.35;;;13.90;99.90;;;;;;5009106;28;20573;-55
2023/10/17 14:42:19;;;;;;;4.57;2.80;;;13.90;99.90;;;;;;5010460;28;20695;-55
2023/10/17 14:44:46;;;;;;;5.28;2.17;;;14.00;99.90;;;;;;5010013;28;20514;-55
2023/10/17 14:47:14;;;;;;;2.88;1.40;;;14.10;99.90;;;;;;5010530;28;20546;-55
2023/10/17 14:49:42;;;;;;;4.47;1.42;;;14.00;99.90;;;;;;5010552;28;20163;-56
2023/10/17 14:52:08;;;;;;;3.85;1.42;;;14.00;99.90;;;;;;5010383;28;20187;-56
2023/10/17 14:54:37;;;;;;;1.42;1.27;;;14.00;99.90;;;;;;5010311;28;20172;-55
2023/10/17 14:57:06;;;;;;;3.35;1.20;;;14.00;99.90;;;;;;5010402;28;20171;-55
2023/10/17 14:59:34;;;;;;;1.65;1.20;;;14.00;99.90;;;;;;5010207;28;20255;-56
2023/10/17 15:02:02;;;;;;;2.35;1.30;;;14.00;99.90;;;;;;5010454;28;20222;-56
2023/10/17 15:04:28;;;;;;;2.83;1.38;;;14.00;99.90;;;;;;5009004;28;20267;-55
2023/10/17 15:06:53;;;;;;;3.78;1.65;;;13.90;99.90;;;;;;5010744;28;20619;-55
2023/10/17 15:09:21;;;;;;;3.25;1.95;;;13.90;99.90;;;;;;5010384;28;20690;-55
2023/10/17 15:11:50;;;;;;;1.83;1.20;;;13.90;99.90;;;;;;5010390;28;20183;-55
2023/10/17 15:14:16;;;;;;;3.58;1.23;;;13.90;99.90;;;;;;5010119;28;20175;-55
2023/10/17 15:16:42;;;;;;;1.52;1.40;;;13.90;99.90;;;;;;5009104;28;20180;-55